• Join FlightAware (Why Join?)
  • Login
  • US Flag 
04:42AM EST


 

Airport Tracker/Info


-or-


 

Live Flight TrackerFlight Track Log ✈ SWA216 ✈ 07-Aug-2013 ✈ KELP - KAUS

Flight Track Log - Related Links

Times and Time Zones

All times are in EDT time to prevent confusion due to time zone crossing. See the SWA216 flight status page for this flight to view local times or setup timezone preferences in your user account.

Time Position Orientation Groundspeed Altitude Reporting Facility
EDT Latitude Longitude Course Direction KTS MPH feet Rate Location/Type
09:19AM 31.8033 -106.3975 167° South 159 183 4,600  Level Albuquerque Center
09:20AM 31.7742 -106.3897 167° South 192 221 5,900 1,920 Climbing Albuquerque Center
09:20AM 31.7556 -106.3597 126° Southeast 218 251 7,200 2,520 Climbing Albuquerque Center
09:21AM 31.7117 -106.2944 128° Southeast 264 304 10,100 3,000 Climbing Albuquerque Center
09:22AM 31.6717 -106.2000 116° Southeast 322 371 13,300 3,780 Climbing Albuquerque Center
09:23AM 31.6133 -106.0781 119° Southeast 357 411 17,800 3,600 Climbing Albuquerque Center
09:24AM 31.5619 -105.9747 120° Southeast 365 420 20,700 2,700 Climbing Albuquerque Center
09:25AM 31.5006 -105.8719 125° Southeast 386 444 23,400 2,520 Climbing Albuquerque Center
09:26AM 31.4603 -105.7478 111° Southeast 411 473 25,900 2,220 Climbing Albuquerque Center
09:27AM 31.4364 -105.6122 102° East 423 487 28,000 2,040 Climbing Albuquerque Center
09:28AM 31.4119 -105.4703 101° East 442 509 30,100 1,920 Climbing Albuquerque Center
09:29AM 31.3864 -105.3239 102° East 455 524 32,000 1,980 Climbing Albuquerque Center
09:30AM 31.3619 -105.1756 101° East 459 528 34,200 1,740 Climbing Albuquerque Center
09:31AM 31.3361 -105.0281 102° East 460 529 35,600 1,500 Climbing Albuquerque Center
09:32AM 31.3092 -104.8775 102° East 466 536 37,300 1,740 Climbing Albuquerque Center
09:33AM 31.2817 -104.7272 102° East 469 540 39,200 1,740 Climbing Albuquerque Center
09:35AM 31.2567 -104.5850 102° East 449 517 40,900 840 Climbing Albuquerque Center
09:36AM 31.2325 -104.4469 102° East 437 503 41,000  Climbing Albuquerque Center
09:37AM 31.2072 -104.3097 102° East 432 497 41,000  Level Albuquerque Center
09:38AM 31.1753 -104.1444 103° East 433 498 41,000  Level Albuquerque Center
09:39AM 31.1497 -104.0067 102° East 434 499 41,000  Level Albuquerque Center
09:40AM 31.1264 -103.8667 101° East 440 506 41,000  Level Albuquerque Center
09:41AM 31.1208 -103.7322 93° East 444 511 41,000  Level Albuquerque Center
09:42AM 31.1128 -103.5881 94° East 444 511 41,000  Level Albuquerque Center
09:43AM 31.1047 -103.4164 93° East 443 510 41,000  Level Albuquerque Center
09:44AM 31.0969 -103.2742 94° East 441 507 41,000  Level Albuquerque Center
09:45AM 31.0897 -103.1319 93° East 441 507 41,000  Level Albuquerque Center
09:46AM 31.0825 -102.9922 93° East 436 502 41,000  Level Albuquerque Center
09:47AM 31.0758 -102.8528 93° East 434 499 41,000  Level Albuquerque Center
09:48AM 31.0683 -102.7136 94° East 434 499 41,000  Level Albuquerque Center
09:49AM 31.0600 -102.5750 94° East 433 498 41,000  Level Albuquerque Center
09:50AM 31.0536 -102.4361 93° East 435 501 41,000  Level Albuquerque Center
09:51AM 31.0447 -102.2719 94° East 427 491 41,000  Level Albuquerque Center
09:52AM 31.0364 -102.1361 94° East 424 488 41,000  Level Albuquerque Center
09:53AM 31.0281 -101.9981 94° East 427 491 41,000  Level Albuquerque Center
09:54AM 31.0203 -101.8636 94° East 429 494 41,000  Level Albuquerque Center
09:55AM 31.0117 -101.7272 94° East 426 490 41,000  Level Albuquerque Center
09:56AM 30.9992 -101.5344 94° East 428 493 41,000  Level Houston Center
09:57AM 30.9903 -101.3950 94° East 432 497 41,000  Level Houston Center
09:58AM 30.9808 -101.2489 94° East 429 494 41,000  Level Houston Center
09:59AM 30.9719 -101.1072 94° East 435 501 41,000  Level Houston Center
10:00AM 30.9631 -100.9669 94° East 436 502 41,000  Level Houston Center
10:01AM 30.9536 -100.8247 94° East 438 504 41,000  Level Houston Center
10:02AM 30.9439 -100.6836 95° East 438 504 41,000  Level Houston Center
10:03AM 30.9342 -100.5433 95° East 434 499 41,000  Level Houston Center
10:04AM 30.9217 -100.3761 95° East 431 496 41,000  Level Houston Center
10:06AM 30.9119 -100.2369 95° East 430 495 41,000  Level Houston Center
10:07AM 30.9019 -100.0989 95° East 428 493 41,000  Level Houston Center
10:08AM 30.8917 -99.9600 95° East 429 494 41,000 -240 Level Houston Center
10:09AM 30.8819 -99.8219 95° East 428 493 40,600 -1,440 Descending Houston Center
10:10AM 30.8703 -99.6869 96° East 420 483 38,100 -2,520 Descending Houston Center
10:11AM 30.8608 -99.5500 95° East 424 488 35,400 -2,940 Descending Houston Center
10:12AM 30.8633 -99.3769 89° East 448 516 32,100 -2,640 Descending Houston Center
10:13AM 30.8808 -99.2386 82° East 436 502 30,000 -1,920 Descending Houston Center
10:14AM 30.8972 -99.1111 81° East 417 480 28,200 -2,160 Descending Houston Center
10:15AM 30.9061 -98.9819 85° East 399 459 25,600 -2,400 Descending Houston Center
10:16AM 30.8789 -98.8369 102° East 388 447 23,200 -2,160 Descending Houston Center
10:17AM 30.8542 -98.7175 104° East 377 434 21,200 -1,920 Descending Houston Center
10:18AM 30.8317 -98.6044 103° East 362 417 19,300 -1,860 Descending Houston Center
10:19AM 30.8089 -98.4933 103° East 352 405 17,400 -1,920 Descending Houston Center
10:20AM 30.7858 -98.3856 104° East 342 394 15,400 -1,920 Descending Houston Center
10:21AM 30.7642 -98.2797 103° East 335 386 13,500 -1,980 Descending Houston Center
10:22AM 30.7450 -98.1869 103° East 324 373 11,800 -1,800 Descending Houston Center
10:23AM 30.7061 -98.0656 110° East 320 368 9,800 -1,440 Descending Houston Center
10:24AM 30.6497 -97.9983 134° Southeast 290 334 8,600 -1,500 Descending Houston Center
10:25AM 30.5994 -97.9394 135° Southeast 275 316 7,000 -1,560 Descending Houston Center
10:26AM 30.5394 -97.8739 137° Southeast 275 316 5,400 -1,380 Descending Houston Center
10:27AM 30.4878 -97.8133 135° Southeast 267 307 4,000 -1,140 Descending Houston Center
10:28AM 30.4408 -97.7519 132° Southeast 259 298 3,100 -540 Descending Houston Center
10:29AM 30.3842 -97.6958 139° Southeast 242 278 3,000 -180 Descending Houston Center
10:30AM 30.3406 -97.6828 166° South 190 219 2,800 -480 Descending Houston Center
10:31AM 30.2964 -97.6814 178° South 166 191 2,100 -720 Descending Houston Center
10:32AM 30.2567 -97.6803 179° South 151 174 1,400 -720 Descending Houston Center
10:33AM 30.2339 -97.6803 180° South 123 142 900 -840 Descending Houston Center
10:35AM 30.1945 -97.6699 221° Southwest  Level Estimated
10:42AM 30.1945 -97.6699 221° Southwest  Level Estimated